sensor_id;sensor_type;location;lat;lon;timestamp;temperature;humidity
16513;DHT22;8369;48.030;11.598;2023-05-31T00:01:18;14.20;99.90
16513;DHT22;8369;48.030;11.598;2023-05-31T00:03:45;14.20;99.90
16513;DHT22;8369;48.030;11.598;2023-05-31T00:06:12;14.20;99.90
16513;DHT22;8369;48.030;11.598;2023-05-31T00:08:39;14.10;99.90
16513;DHT22;8369;48.030;11.598;2023-05-31T00:11:07;14.10;99.90
16513;DHT22;8369;48.030;11.598;2023-05-31T00:13:34;14.00;99.90
16513;DHT22;8369;48.030;11.598;2023-05-31T00:16:00;13.90;99.90
16513;DHT22;8369;48.030;11.598;2023-05-31T00:18:26;13.90;99.90
16513;DHT22;8369;48.030;11.598;2023-05-31T00:20:52;13.80;99.90
16513;DHT22;8369;48.030;11.598;2023-05-31T00:23:42;13.80;99.90
16513;DHT22;8369;48.030;11.598;2023-05-31T00:26:08;13.70;99.90
16513;DHT22;8369;48.030;11.598;2023-05-31T00:28:35;13.70;99.90
16513;DHT22;8369;48.030;11.598;2023-05-31T00:31:04;13.70;99.90
16513;DHT22;8369;48.030;11.598;2023-05-31T00:33:31;13.60;99.90
16513;DHT22;8369;48.030;11.598;2023-05-31T00:35:57;13.60;99.90
16513;DHT22;8369;48.030;11.598;2023-05-31T00:38:30;13.60;99.90
16513;DHT22;8369;48.030;11.598;2023-05-31T00:41:08;13.50;99.90
16513;DHT22;8369;48.030;11.598;2023-05-31T00:43:34;13.50;99.90
16513;DHT22;8369;48.030;11.598;2023-05-31T00:46:00;13.50;99.90
16513;DHT22;8369;48.030;11.598;2023-05-31T00:48:33;13.40;99.90
16513;DHT22;8369;48.030;11.598;2023-05-31T00:50:59;13.40;99.90
16513;DHT22;8369;48.030;11.598;2023-05-31T00:53:25;13.30;99.90
16513;DHT22;8369;48.030;11.598;2023-05-31T00:56:04;13.30;99.90
16513;DHT22;8369;48.030;11.598;2023-05-31T00:58:31;13.30;99.90
16513;DHT22;8369;48.030;11.598;2023-05-31T01:01:00;13.20;99.90
16513;DHT22;8369;48.030;11.598;2023-05-31T01:03:26;13.20;99.90
16513;DHT22;8369;48.030;11.598;2023-05-31T01:05:52;13.20;99.90
16513;DHT22;8369;48.030;11.598;2023-05-31T01:08:19;13.10;99.90
16513;DHT22;8369;48.030;11.598;2023-05-31T01:10:53;13.10;99.90
16513;DHT22;8369;48.030;11.598;2023-05-31T01:13:38;13.10;99.90
16513;DHT22;8369;48.030;11.598;2023-05-31T01:16:16;13.00;99.90
16513;DHT22;8369;48.030;11.598;2023-05-31T01:18:48;13.00;99.90
16513;DHT22;8369;48.030;11.598;2023-05-31T01:21:18;13.00;99.90
16513;DHT22;8369;48.030;11.598;2023-05-31T01:26:38;12.90;99.90
16513;DHT22;8369;48.030;11.598;2023-05-31T01:29:26;12.90;99.90
16513;DHT22;8369;48.030;11.598;2023-05-31T01:31:52;12.90;99.90
16513;DHT22;8369;48.030;11.598;2023-05-31T01:34:20;12.90;99.90
16513;DHT22;8369;48.030;11.598;2023-05-31T01:36:47;12.90;99.90
16513;DHT22;8369;48.030;11.598;2023-05-31T01:39:13;12.90;99.90
16513;DHT22;8369;48.030;11.598;2023-05-31T01:41:41;12.90;99.90
16513;DHT22;8369;48.030;11.598;2023-05-31T01:44:09;12.90;99.90
16513;DHT22;8369;48.030;11.598;2023-05-31T01:46:45;12.80;99.90
16513;DHT22;8369;48.030;11.598;2023-05-31T01:49:12;12.80;99.90
16513;DHT22;8369;48.030;11.598;2023-05-31T01:51:40;12.80;99.90
16513;DHT22;8369;48.030;11.598;2023-05-31T01:54:19;12.70;99.90
16513;DHT22;8369;48.030;11.598;2023-05-31T01:56:46;12.70;99.90
16513;DHT22;8369;48.030;11.598;2023-05-31T01:59:12;12.70;99.90
16513;DHT22;8369;48.030;11.598;2023-05-31T02:01:39;12.70;99.90
16513;DHT22;8369;48.030;11.598;2023-05-31T02:04:07;12.70;99.90
16513;DHT22;8369;48.030;11.598;2023-05-31T02:06:37;12.60;99.90
16513;DHT22;8369;48.030;11.598;2023-05-31T02:09:13;12.60;99.90
16513;DHT22;8369;48.030;11.598;2023-05-31T02:11:39;12.50;99.90
16513;DHT22;8369;48.030;11.598;2023-05-31T02:14:05;12.50;99.90
16513;DHT22;8369;48.030;11.598;2023-05-31T02:16:31;12.50;99.90
16513;DHT22;8369;48.030;11.598;2023-05-31T02:19:03;12.40;99.90
16513;DHT22;8369;48.030;11.598;2023-05-31T02:21:36;12.40;99.90
16513;DHT22;8369;48.030;11.598;2023-05-31T02:24:02;12.40;99.90
16513;DHT22;8369;48.030;11.598;2023-05-31T02:26:30;12.40;99.90
16513;DHT22;8369;48.030;11.598;2023-05-31T02:28:56;12.40;99.90
16513;DHT22;8369;48.030;11.598;2023-05-31T02:31:22;12.40;99.90
16513;DHT22;8369;48.030;11.598;2023-05-31T02:33:49;12.30;99.90
16513;DHT22;8369;48.030;11.598;2023-05-31T02:36:19;12.30;99.90
16513;DHT22;8369;48.030;11.598;2023-05-31T02:38:45;12.30;99.90
16513;DHT22;8369;48.030;11.598;2023-05-31T02:41:12;12.30;99.90
16513;DHT22;8369;48.030;11.598;2023-05-31T02:43:38;12.30;99.90
16513;DHT22;8369;48.030;11.598;2023-05-31T02:46:04;12.20;99.90
16513;DHT22;8369;48.030;11.598;2023-05-31T02:48:30;12.20;99.90
16513;DHT22;8369;48.030;11.598;2023-05-31T02:50:56;12.20;99.90
16513;DHT22;8369;48.030;11.598;2023-05-31T02:53:25;12.20;99.90
16513;DHT22;8369;48.030;11.598;2023-05-31T02:55:58;12.20;99.90
16513;DHT22;8369;48.030;11.598;2023-05-31T02:58:24;12.10;99.90
16513;DHT22;8369;48.030;11.598;2023-05-31T03:00:50;12.10;99.90
16513;DHT22;8369;48.030;11.598;2023-05-31T03:03:16;12.10;99.90
16513;DHT22;8369;48.030;11.598;2023-05-31T03:05:44;12.00;99.90
16513;DHT22;8369;48.030;11.598;2023-05-31T03:08:17;12.00;99.90
16513;DHT22;8369;48.030;11.598;2023-05-31T03:10:44;12.00;99.90
16513;DHT22;8369;48.030;11.598;2023-05-31T03:13:11;12.00;99.90
16513;DHT22;8369;48.030;11.598;2023-05-31T03:15:44;12.00;99.90
16513;DHT22;8369;48.030;11.598;2023-05-31T03:18:10;11.90;99.90
16513;DHT22;8369;48.030;11.598;2023-05-31T03:20:36;11.90;99.90
16513;DHT22;8369;48.030;11.598;2023-05-31T03:23:03;11.90;99.90
16513;DHT22;8369;48.030;11.598;2023-05-31T03:25:28;11.90;99.90
16513;DHT22;8369;48.030;11.598;2023-05-31T03:27:56;11.80;99.90
16513;DHT22;8369;48.030;11.598;2023-05-31T03:30:23;11.80;99.90
16513;DHT22;8369;48.030;11.598;2023-05-31T03:32:51;11.80;99.90
16513;DHT22;8369;48.030;11.598;2023-05-31T03:35:17;11.80;99.90
16513;DHT22;8369;48.030;11.598;2023-05-31T03:37:43;11.80;99.90
16513;DHT22;8369;48.030;11.598;2023-05-31T03:40:25;11.80;99.90
16513;DHT22;8369;48.030;11.598;2023-05-31T03:42:53;11.80;99.90
16513;DHT22;8369;48.030;11.598;2023-05-31T03:45:25;11.80;99.90
16513;DHT22;8369;48.030;11.598;2023-05-31T03:47:52;11.80;99.90
16513;DHT22;8369;48.030;11.598;2023-05-31T03:50:20;11.80;99.90
16513;DHT22;8369;48.030;11.598;2023-05-31T03:52:46;11.80;99.90
16513;DHT22;8369;48.030;11.598;2023-05-31T03:55:16;11.80;99.90
16513;DHT22;8369;48.030;11.598;2023-05-31T03:57:43;11.80;99.90
16513;DHT22;8369;48.030;11.598;2023-05-31T04:00:12;11.80;99.90
16513;DHT22;8369;48.030;11.598;2023-05-31T04:02:39;11.70;99.90
16513;DHT22;8369;48.030;11.598;2023-05-31T04:05:09;11.70;99.90
16513;DHT22;8369;48.030;11.598;2023-05-31T04:07:35;11.70;99.90
16513;DHT22;8369;48.030;11.598;2023-05-31T04:10:02;11.70;99.90
16513;DHT22;8369;48.030;11.598;2023-05-31T04:12:29;11.70;99.90
16513;DHT22;8369;48.030;11.598;2023-05-31T04:14:58;11.70;99.90
16513;DHT22;8369;48.030;11.598;2023-05-31T04:17:24;11.80;99.90
16513;DHT22;8369;48.030;11.598;2023-05-31T04:20:07;11.70;99.90
16513;DHT22;8369;48.030;11.598;2023-05-31T04:22:37;11.80;99.90
16513;DHT22;8369;48.030;11.598;2023-05-31T04:25:05;11.80;99.90
16513;DHT22;8369;48.030;11.598;2023-05-31T04:27:32;11.90;99.90
16513;DHT22;8369;48.030;11.598;2023-05-31T04:29:59;11.90;99.90
16513;DHT22;8369;48.030;11.598;2023-05-31T04:32:28;11.90;99.90
16513;DHT22;8369;48.030;11.598;2023-05-31T04:35:09;12.00;99.90
16513;DHT22;8369;48.030;11.598;2023-05-31T04:37:46;12.00;99.90
16513;DHT22;8369;48.030;11.598;2023-05-31T04:40:13;12.10;99.90
16513;DHT22;8369;48.030;11.598;2023-05-31T04:42:42;12.10;99.90
16513;DHT22;8369;48.030;11.598;2023-05-31T04:45:09;12.20;99.90
16513;DHT22;8369;48.030;11.598;2023-05-31T04:47:39;12.30;99.90
16513;DHT22;8369;48.030;11.598;2023-05-31T04:50:06;12.40;99.90
16513;DHT22;8369;48.030;11.598;2023-05-31T04:52:32;12.40;99.90
16513;DHT22;8369;48.030;11.598;2023-05-31T04:54:59;12.50;99.90
16513;DHT22;8369;48.030;11.598;2023-05-31T04:57:27;12.60;99.90
16513;DHT22;8369;48.030;11.598;2023-05-31T04:59:54;12.70;99.90
16513;DHT22;8369;48.030;11.598;2023-05-31T05:02:29;12.80;99.90
16513;DHT22;8369;48.030;11.598;2023-05-31T05:04:56;12.90;99.90
16513;DHT22;8369;48.030;11.598;2023-05-31T05:07:31;13.00;99.90
16513;DHT22;8369;48.030;11.598;2023-05-31T05:09:58;13.10;99.90
16513;DHT22;8369;48.030;11.598;2023-05-31T05:12:24;13.20;99.90
16513;DHT22;8369;48.030;11.598;2023-05-31T05:14:50;13.30;99.90
16513;DHT22;8369;48.030;11.598;2023-05-31T05:17:21;13.40;99.90
16513;DHT22;8369;48.030;11.598;2023-05-31T05:19:47;13.50;99.90
16513;DHT22;8369;48.030;11.598;2023-05-31T05:22:16;13.60;99.90
16513;DHT22;8369;48.030;11.598;2023-05-31T05:24:49;13.70;99.90
16513;DHT22;8369;48.030;11.598;2023-05-31T05:27:15;13.80;99.90
16513;DHT22;8369;48.030;11.598;2023-05-31T05:29:44;14.00;99.90
16513;DHT22;8369;48.030;11.598;2023-05-31T05:32:11;14.10;99.90
16513;DHT22;8369;48.030;11.598;2023-05-31T05:34:40;14.20;99.90
16513;DHT22;8369;48.030;11.598;2023-05-31T05:37:07;14.30;99.90
16513;DHT22;8369;48.030;11.598;2023-05-31T05:39:34;14.40;99.90
16513;DHT22;8369;48.030;11.598;2023-05-31T05:42:01;14.60;99.90
16513;DHT22;8369;48.030;11.598;2023-05-31T05:44:29;14.70;99.90
16513;DHT22;8369;48.030;11.598;2023-05-31T05:46:55;14.80;99.90
16513;DHT22;8369;48.030;11.598;2023-05-31T05:49:22;14.90;99.90
16513;DHT22;8369;48.030;11.598;2023-05-31T05:51:50;15.10;99.90
16513;DHT22;8369;48.030;11.598;2023-05-31T05:54:16;15.20;99.20
16513;DHT22;8369;48.030;11.598;2023-05-31T05:56:51;15.30;99.90
16513;DHT22;8369;48.030;11.598;2023-05-31T05:59:17;15.40;99.70
16513;DHT22;8369;48.030;11.598;2023-05-31T06:01:53;15.50;98.60
16513;DHT22;8369;48.030;11.598;2023-05-31T06:04:19;15.60;96.60
16513;DHT22;8369;48.030;11.598;2023-05-31T06:06:48;15.60;96.60
16513;DHT22;8369;48.030;11.598;2023-05-31T06:09:14;15.80;96.90
16513;DHT22;8369;48.030;11.598;2023-05-31T06:11:42;15.90;96.50
16513;DHT22;8369;48.030;11.598;2023-05-31T06:14:10;15.90;96.10
16513;DHT22;8369;48.030;11.598;2023-05-31T06:16:38;16.10;96.00
16513;DHT22;8369;48.030;11.598;2023-05-31T06:19:04;16.10;95.30
16513;DHT22;8369;48.030;11.598;2023-05-31T06:21:30;16.20;95.20
16513;DHT22;8369;48.030;11.598;2023-05-31T06:24:04;16.30;94.60
16513;DHT22;8369;48.030;11.598;2023-05-31T06:26:32;16.30;93.80
16513;DHT22;8369;48.030;11.598;2023-05-31T06:29:07;16.40;92.80
16513;DHT22;8369;48.030;11.598;2023-05-31T06:31:34;16.50;94.20
16513;DHT22;8369;48.030;11.598;2023-05-31T06:34:02;16.50;92.80
16513;DHT22;8369;48.030;11.598;2023-05-31T06:36:29;16.60;93.10
16513;DHT22;8369;48.030;11.598;2023-05-31T06:38:55;16.70;92.70
16513;DHT22;8369;48.030;11.598;2023-05-31T06:41:21;16.80;92.40
16513;DHT22;8369;48.030;11.598;2023-05-31T06:43:47;16.80;91.60
16513;DHT22;8369;48.030;11.598;2023-05-31T06:46:14;17.00;91.60
16513;DHT22;8369;48.030;11.598;2023-05-31T06:48:46;17.00;91.20
16513;DHT22;8369;48.030;11.598;2023-05-31T06:51:11;17.10;90.60
16513;DHT22;8369;48.030;11.598;2023-05-31T06:53:38;17.10;90.60
16513;DHT22;8369;48.030;11.598;2023-05-31T06:56:04;17.20;91.40
16513;DHT22;8369;48.030;11.598;2023-05-31T06:58:31;17.40;91.10
16513;DHT22;8369;48.030;11.598;2023-05-31T07:00:58;17.40;90.50
16513;DHT22;8369;48.030;11.598;2023-05-31T07:03:33;17.50;90.60
16513;DHT22;8369;48.030;11.598;2023-05-31T07:05:59;17.60;90.90
16513;DHT22;8369;48.030;11.598;2023-05-31T07:08:25;17.60;89.50
16513;DHT22;8369;48.030;11.598;2023-05-31T07:10:52;17.70;89.70
16513;DHT22;8369;48.030;11.598;2023-05-31T07:13:25;17.70;89.10
16513;DHT22;8369;48.030;11.598;2023-05-31T07:15:51;17.70;89.20
16513;DHT22;8369;48.030;11.598;2023-05-31T07:18:18;17.80;89.10
16513;DHT22;8369;48.030;11.598;2023-05-31T07:20:51;17.80;88.20
16513;DHT22;8369;48.030;11.598;2023-05-31T07:23:22;18.00;89.20
16513;DHT22;8369;48.030;11.598;2023-05-31T07:25:49;18.10;89.20
16513;DHT22;8369;48.030;11.598;2023-05-31T07:28:17;18.10;87.40
16513;DHT22;8369;48.030;11.598;2023-05-31T07:30:43;18.20;85.60
16513;DHT22;8369;48.030;11.598;2023-05-31T07:33:10;18.30;86.90
16513;DHT22;8369;48.030;11.598;2023-05-31T07:35:37;18.30;86.20
16513;DHT22;8369;48.030;11.598;2023-05-31T07:38:03;18.40;87.40
16513;DHT22;8369;48.030;11.598;2023-05-31T07:40:35;18.50;88.20
16513;DHT22;8369;48.030;11.598;2023-05-31T07:43:01;18.50;87.70
16513;DHT22;8369;48.030;11.598;2023-05-31T07:45:27;18.60;86.30
16513;DHT22;8369;48.030;11.598;2023-05-31T07:47:55;18.70;87.20
16513;DHT22;8369;48.030;11.598;2023-05-31T07:50:22;18.80;84.80
16513;DHT22;8369;48.030;11.598;2023-05-31T07:52:48;18.80;84.20
16513;DHT22;8369;48.030;11.598;2023-05-31T07:55:15;18.90;84.20
16513;DHT22;8369;48.030;11.598;2023-05-31T07:57:44;18.90;85.60
16513;DHT22;8369;48.030;11.598;2023-05-31T08:00:11;19.00;86.60
16513;DHT22;8369;48.030;11.598;2023-05-31T08:02:45;19.20;86.30
16513;DHT22;8369;48.030;11.598;2023-05-31T08:05:13;19.20;84.70
16513;DHT22;8369;48.030;11.598;2023-05-31T08:07:39;19.30;84.70
16513;DHT22;8369;48.030;11.598;2023-05-31T08:10:05;19.40;82.70
16513;DHT22;8369;48.030;11.598;2023-05-31T08:12:32;19.50;84.20
16513;DHT22;8369;48.030;11.598;2023-05-31T08:15:00;19.60;82.80
16513;DHT22;8369;48.030;11.598;2023-05-31T08:17:27;19.70;81.80
16513;DHT22;8369;48.030;11.598;2023-05-31T08:20:03;19.80;79.10
16513;DHT22;8369;48.030;11.598;2023-05-31T08:22:41;19.90;81.00
16513;DHT22;8369;48.030;11.598;2023-05-31T08:25:13;20.00;79.70
16513;DHT22;8369;48.030;11.598;2023-05-31T08:27:40;20.00;80.00
16513;DHT22;8369;48.030;11.598;2023-05-31T08:30:09;20.00;79.00
16513;DHT22;8369;48.030;11.598;2023-05-31T08:32:37;20.10;79.90
16513;DHT22;8369;48.030;11.598;2023-05-31T08:35:07;20.20;80.80
16513;DHT22;8369;48.030;11.598;2023-05-31T08:37:35;20.30;79.10
16513;DHT22;8369;48.030;11.598;2023-05-31T08:40:07;20.40;78.10
16513;DHT22;8369;48.030;11.598;2023-05-31T08:42:50;20.40;74.40
16513;DHT22;8369;48.030;11.598;2023-05-31T08:45:26;20.50;76.10
16513;DHT22;8369;48.030;11.598;2023-05-31T08:48:32;20.50;76.20
16513;DHT22;8369;48.030;11.598;2023-05-31T08:51:07;20.60;75.00
16513;DHT22;8369;48.030;11.598;2023-05-31T08:53:34;20.70;73.90
16513;DHT22;8369;48.030;11.598;2023-05-31T08:56:02;20.70;72.70
16513;DHT22;8369;48.030;11.598;2023-05-31T08:58:35;20.70;73.20
16513;DHT22;8369;48.030;11.598;2023-05-31T09:01:03;20.60;70.40
16513;DHT22;8369;48.030;11.598;2023-05-31T09:03:34;20.70;70.40
16513;DHT22;8369;48.030;11.598;2023-05-31T09:06:01;20.70;70.10
16513;DHT22;8369;48.030;11.598;2023-05-31T09:08:27;20.80;70.90
16513;DHT22;8369;48.030;11.598;2023-05-31T09:11:02;20.80;67.40
16513;DHT22;8369;48.030;11.598;2023-05-31T09:13:29;20.90;68.90
16513;DHT22;8369;48.030;11.598;2023-05-31T09:15:55;21.00;69.50
16513;DHT22;8369;48.030;11.598;2023-05-31T09:18:23;21.10;67.60
16513;DHT22;8369;48.030;11.598;2023-05-31T09:21:07;21.20;67.10
16513;DHT22;8369;48.030;11.598;2023-05-31T09:23:34;21.30;65.00
16513;DHT22;8369;48.030;11.598;2023-05-31T09:26:06;21.30;65.10
16513;DHT22;8369;48.030;11.598;2023-05-31T09:28:33;21.30;62.70
16513;DHT22;8369;48.030;11.598;2023-05-31T09:31:06;21.30;62.80
16513;DHT22;8369;48.030;11.598;2023-05-31T09:33:41;21.30;63.30
16513;DHT22;8369;48.030;11.598;2023-05-31T09:36:08;21.40;63.60
16513;DHT22;8369;48.030;11.598;2023-05-31T09:38:37;21.50;63.70
16513;DHT22;8369;48.030;11.598;2023-05-31T09:41:17;21.50;64.40
16513;DHT22;8369;48.030;11.598;2023-05-31T09:43:48;21.60;62.50
16513;DHT22;8369;48.030;11.598;2023-05-31T09:46:29;21.70;63.90
16513;DHT22;8369;48.030;11.598;2023-05-31T09:49:03;21.80;64.70
16513;DHT22;8369;48.030;11.598;2023-05-31T09:51:38;21.90;63.40
16513;DHT22;8369;48.030;11.598;2023-05-31T09:54:14;21.90;61.50
16513;DHT22;8369;48.030;11.598;2023-05-31T09:56:44;21.90;62.10
16513;DHT22;8369;48.030;11.598;2023-05-31T09:59:10;22.00;61.30
16513;DHT22;8369;48.030;11.598;2023-05-31T10:01:37;22.00;61.20
16513;DHT22;8369;48.030;11.598;2023-05-31T10:04:12;22.00;61.00
16513;DHT22;8369;48.030;11.598;2023-05-31T10:06:39;22.10;60.90
16513;DHT22;8369;48.030;11.598;2023-05-31T10:09:07;22.20;62.20
16513;DHT22;8369;48.030;11.598;2023-05-31T10:11:50;22.20;62.40
16513;DHT22;8369;48.030;11.598;2023-05-31T10:14:24;22.30;60.20
16513;DHT22;8369;48.030;11.598;2023-05-31T10:16:54;22.40;61.90
16513;DHT22;8369;48.030;11.598;2023-05-31T10:19:40;22.50;62.10
16513;DHT22;8369;48.030;11.598;2023-05-31T10:22:08;22.60;59.50
16513;DHT22;8369;48.030;11.598;2023-05-31T10:24:42;22.50;59.80
16513;DHT22;8369;48.030;11.598;2023-05-31T10:27:29;22.60;60.70
16513;DHT22;8369;48.030;11.598;2023-05-31T10:30:00;22.60;59.10
16513;DHT22;8369;48.030;11.598;2023-05-31T10:32:44;22.60;58.20
16513;DHT22;8369;48.030;11.598;2023-05-31T10:35:12;22.50;59.50
16513;DHT22;8369;48.030;11.598;2023-05-31T10:37:39;22.60;60.20
16513;DHT22;8369;48.030;11.598;2023-05-31T10:45:46;22.60;59.40
16513;DHT22;8369;48.030;11.598;2023-05-31T10:48:29;22.40;58.80
16513;DHT22;8369;48.030;11.598;2023-05-31T10:51:01;22.40;59.50
16513;DHT22;8369;48.030;11.598;2023-05-31T10:53:39;22.40;58.90
16513;DHT22;8369;48.030;11.598;2023-05-31T10:56:13;22.40;58.70
16513;DHT22;8369;48.030;11.598;2023-05-31T10:58:53;22.50;59.80
16513;DHT22;8369;48.030;11.598;2023-05-31T11:01:21;22.50;59.10
16513;DHT22;8369;48.030;11.598;2023-05-31T11:03:49;22.60;59.40
16513;DHT22;8369;48.030;11.598;2023-05-31T11:06:37;22.80;59.50
16513;DHT22;8369;48.030;11.598;2023-05-31T11:09:17;22.90;57.70
16513;DHT22;8369;48.030;11.598;2023-05-31T11:11:47;22.90;57.50
16513;DHT22;8369;48.030;11.598;2023-05-31T11:19:31;23.20;56.80
16513;DHT22;8369;48.030;11.598;2023-05-31T11:22:08;23.20;56.00
16513;DHT22;8369;48.030;11.598;2023-05-31T11:24:50;23.20;57.10
16513;DHT22;8369;48.030;11.598;2023-05-31T11:27:17;23.30;57.70
16513;DHT22;8369;48.030;11.598;2023-05-31T11:35:06;23.50;56.70
16513;DHT22;8369;48.030;11.598;2023-05-31T11:37:41;23.50;55.70
16513;DHT22;8369;48.030;11.598;2023-05-31T11:40:12;23.60;57.10
16513;DHT22;8369;48.030;11.598;2023-05-31T11:42:41;23.70;55.20
16513;DHT22;8369;48.030;11.598;2023-05-31T11:45:13;23.60;54.70
16513;DHT22;8369;48.030;11.598;2023-05-31T11:50:43;23.70;56.00
16513;DHT22;8369;48.030;11.598;2023-05-31T11:53:10;23.70;56.00
16513;DHT22;8369;48.030;11.598;2023-05-31T11:55:45;23.80;55.50
16513;DHT22;8369;48.030;11.598;2023-05-31T11:58:13;23.90;55.80
16513;DHT22;8369;48.030;11.598;2023-05-31T12:00:49;23.90;55.10
16513;DHT22;8369;48.030;11.598;2023-05-31T12:03:16;23.90;55.80
16513;DHT22;8369;48.030;11.598;2023-05-31T12:05:50;23.90;56.20
16513;DHT22;8369;48.030;11.598;2023-05-31T12:08:16;24.00;56.70
16513;DHT22;8369;48.030;11.598;2023-05-31T12:10:46;23.90;55.40
16513;DHT22;8369;48.030;11.598;2023-05-31T12:13:29;23.90;56.00
16513;DHT22;8369;48.030;11.598;2023-05-31T12:15:58;24.00;55.70
16513;DHT22;8369;48.030;11.598;2023-05-31T12:18:36;24.00;56.00
16513;DHT22;8369;48.030;11.598;2023-05-31T12:21:09;24.00;55.70
16513;DHT22;8369;48.030;11.598;2023-05-31T12:23:59;24.00;55.70
16513;DHT22;8369;48.030;11.598;2023-05-31T12:26:35;23.80;56.20
16513;DHT22;8369;48.030;11.598;2023-05-31T12:49:24;23.70;55.80
16513;DHT22;8369;48.030;11.598;2023-05-31T12:51:58;23.70;57.40
16513;DHT22;8369;48.030;11.598;2023-05-31T12:54:25;23.80;56.50
16513;DHT22;8369;48.030;11.598;2023-05-31T12:56:55;23.80;57.20
16513;DHT22;8369;48.030;11.598;2023-05-31T12:59:24;23.90;57.40
16513;DHT22;8369;48.030;11.598;2023-05-31T13:01:51;24.00;56.80
16513;DHT22;8369;48.030;11.598;2023-05-31T13:04:24;24.00;55.00
16513;DHT22;8369;48.030;11.598;2023-05-31T13:07:18;24.10;56.00
16513;DHT22;8369;48.030;11.598;2023-05-31T13:09:46;24.10;55.80
16513;DHT22;8369;48.030;11.598;2023-05-31T13:12:37;24.10;56.50
16513;DHT22;8369;48.030;11.598;2023-05-31T13:15:05;24.10;55.10
16513;DHT22;8369;48.030;11.598;2023-05-31T13:17:34;24.10;55.50
16513;DHT22;8369;48.030;11.598;2023-05-31T13:20:02;24.10;54.40
16513;DHT22;8369;48.030;11.598;2023-05-31T13:22:29;24.10;54.80
16513;DHT22;8369;48.030;11.598;2023-05-31T13:24:56;24.20;55.10
16513;DHT22;8369;48.030;11.598;2023-05-31T13:27:23;24.30;55.10
16513;DHT22;8369;48.030;11.598;2023-05-31T13:29:50;24.40;55.40
16513;DHT22;8369;48.030;11.598;2023-05-31T13:32:16;24.50;54.80
16513;DHT22;8369;48.030;11.598;2023-05-31T13:34:41;24.50;54.50
16513;DHT22;8369;48.030;11.598;2023-05-31T13:37:08;24.50;54.40
16513;DHT22;8369;48.030;11.598;2023-05-31T13:39:34;24.60;53.80
16513;DHT22;8369;48.030;11.598;2023-05-31T13:42:08;24.60;53.40
16513;DHT22;8369;48.030;11.598;2023-05-31T13:44:34;24.70;53.00
16513;DHT22;8369;48.030;11.598;2023-05-31T13:47:01;24.70;53.40
16513;DHT22;8369;48.030;11.598;2023-05-31T13:49:30;24.60;54.50
16513;DHT22;8369;48.030;11.598;2023-05-31T13:51:58;24.60;54.50
16513;DHT22;8369;48.030;11.598;2023-05-31T13:54:24;24.60;54.40
16513;DHT22;8369;48.030;11.598;2023-05-31T13:56:51;24.50;55.10
16513;DHT22;8369;48.030;11.598;2023-05-31T13:59:22;24.50;55.00
16513;DHT22;8369;48.030;11.598;2023-05-31T14:01:50;24.60;53.80
16513;DHT22;8369;48.030;11.598;2023-05-31T14:04:18;24.60;53.80
16513;DHT22;8369;48.030;11.598;2023-05-31T14:06:44;24.70;54.40
16513;DHT22;8369;48.030;11.598;2023-05-31T14:09:12;24.70;54.40
16513;DHT22;8369;48.030;11.598;2023-05-31T14:11:38;24.70;54.50
16513;DHT22;8369;48.030;11.598;2023-05-31T14:14:06;24.60;53.40
16513;DHT22;8369;48.030;11.598;2023-05-31T14:16:33;24.50;53.80
16513;DHT22;8369;48.030;11.598;2023-05-31T14:19:01;24.50;54.00
16513;DHT22;8369;48.030;11.598;2023-05-31T14:21:34;24.50;54.80
16513;DHT22;8369;48.030;11.598;2023-05-31T14:24:01;24.50;54.00
16513;DHT22;8369;48.030;11.598;2023-05-31T14:26:27;24.50;53.80
16513;DHT22;8369;48.030;11.598;2023-05-31T14:28:55;24.40;54.10
16513;DHT22;8369;48.030;11.598;2023-05-31T14:31:23;24.40;54.50
16513;DHT22;8369;48.030;11.598;2023-05-31T14:33:49;24.50;54.50
16513;DHT22;8369;48.030;11.598;2023-05-31T14:36:16;24.50;54.00
16513;DHT22;8369;48.030;11.598;2023-05-31T14:38:43;24.40;53.50
16513;DHT22;8369;48.030;11.598;2023-05-31T14:41:10;24.30;54.00
16513;DHT22;8369;48.030;11.598;2023-05-31T14:43:36;24.30;54.00
16513;DHT22;8369;48.030;11.598;2023-05-31T14:46:03;24.30;54.40
16513;DHT22;8369;48.030;11.598;2023-05-31T14:48:30;24.40;54.50
16513;DHT22;8369;48.030;11.598;2023-05-31T14:50:56;24.40;54.20
16513;DHT22;8369;48.030;11.598;2023-05-31T14:53:23;24.40;54.80
16513;DHT22;8369;48.030;11.598;2023-05-31T14:55:57;24.40;54.10
16513;DHT22;8369;48.030;11.598;2023-05-31T14:58:23;24.40;53.80
16513;DHT22;8369;48.030;11.598;2023-05-31T15:00:55;24.40;54.50
16513;DHT22;8369;48.030;11.598;2023-05-31T15:03:23;24.40;55.20
16513;DHT22;8369;48.030;11.598;2023-05-31T15:05:49;24.50;55.40
16513;DHT22;8369;48.030;11.598;2023-05-31T15:08:15;24.50;55.00
16513;DHT22;8369;48.030;11.598;2023-05-31T15:10:54;24.50;55.20
16513;DHT22;8369;48.030;11.598;2023-05-31T15:13:20;24.50;55.50
16513;DHT22;8369;48.030;11.598;2023-05-31T15:15:49;24.50;55.70
16513;DHT22;8369;48.030;11.598;2023-05-31T15:18:46;24.60;55.00
16513;DHT22;8369;48.030;11.598;2023-05-31T15:21:29;24.50;53.40
16513;DHT22;8369;48.030;11.598;2023-05-31T15:24:04;24.50;53.80
16513;DHT22;8369;48.030;11.598;2023-05-31T15:26:32;24.50;53.40
16513;DHT22;8369;48.030;11.598;2023-05-31T15:29:01;24.50;54.00
16513;DHT22;8369;48.030;11.598;2023-05-31T15:31:34;24.50;54.00
16513;DHT22;8369;48.030;11.598;2023-05-31T15:34:00;24.50;54.20
16513;DHT22;8369;48.030;11.598;2023-05-31T15:36:26;24.50;54.70
16513;DHT22;8369;48.030;11.598;2023-05-31T15:39:00;24.50;55.50
16513;DHT22;8369;48.030;11.598;2023-05-31T15:41:32;24.50;55.80
16513;DHT22;8369;48.030;11.598;2023-05-31T15:44:03;24.40;55.80
16513;DHT22;8369;48.030;11.598;2023-05-31T15:46:35;24.40;57.10
16513;DHT22;8369;48.030;11.598;2023-05-31T15:49:05;24.40;57.70
16513;DHT22;8369;48.030;11.598;2023-05-31T15:51:33;24.40;57.40
16513;DHT22;8369;48.030;11.598;2023-05-31T15:53:59;24.40;57.90
16513;DHT22;8369;48.030;11.598;2023-05-31T15:56:26;24.40;58.70
16513;DHT22;8369;48.030;11.598;2023-05-31T15:58:54;24.30;59.10
16513;DHT22;8369;48.030;11.598;2023-05-31T16:01:20;24.30;59.70
16513;DHT22;8369;48.030;11.598;2023-05-31T16:03:47;24.30;60.40
16513;DHT22;8369;48.030;11.598;2023-05-31T16:06:13;24.30;60.20
16513;DHT22;8369;48.030;11.598;2023-05-31T16:08:39;24.20;60.50
16513;DHT22;8369;48.030;11.598;2023-05-31T16:11:06;24.10;61.00
16513;DHT22;8369;48.030;11.598;2023-05-31T16:13:32;24.10;61.20
16513;DHT22;8369;48.030;11.598;2023-05-31T16:16:00;24.10;61.50
16513;DHT22;8369;48.030;11.598;2023-05-31T16:18:26;24.10;61.80
16513;DHT22;8369;48.030;11.598;2023-05-31T16:20:52;24.10;62.40
16513;DHT22;8369;48.030;11.598;2023-05-31T16:23:18;24.10;62.50
16513;DHT22;8369;48.030;11.598;2023-05-31T16:25:45;24.10;62.50
16513;DHT22;8369;48.030;11.598;2023-05-31T16:28:11;24.10;62.80